sensor_id;sensor_type;location;lat;lon;timestamp;P1;durP1;ratioP1;P2;durP2;ratioP2
4638;SDS011;2332;38.646;-9.154;2023-04-03T00:00:52;5.87;;;2.17;;
4638;SDS011;2332;38.646;-9.154;2023-04-03T00:03:18;2.93;;;2.30;;
4638;SDS011;2332;38.646;-9.154;2023-04-03T00:05:44;2.53;;;1.90;;
4638;SDS011;2332;38.646;-9.154;2023-04-03T00:08:09;3.27;;;2.03;;
4638;SDS011;2332;38.646;-9.154;2023-04-03T00:10:35;13.50;;;2.70;;
4638;SDS011;2332;38.646;-9.154;2023-04-03T00:13:01;5.17;;;1.90;;
4638;SDS011;2332;38.646;-9.154;2023-04-03T00:15:26;7.77;;;1.77;;
4638;SDS011;2332;38.646;-9.154;2023-04-03T00:17:51;4.20;;;1.87;;
4638;SDS011;2332;38.646;-9.154;2023-04-03T00:20:17;2.13;;;1.93;;
4638;SDS011;2332;38.646;-9.154;2023-04-03T00:22:42;4.50;;;2.10;;
4638;SDS011;2332;38.646;-9.154;2023-04-03T00:25:08;4.40;;;1.83;;
4638;SDS011;2332;38.646;-9.154;2023-04-03T00:27:35;4.30;;;1.60;;
4638;SDS011;2332;38.646;-9.154;2023-04-03T00:30:01;2.93;;;1.97;;
4638;SDS011;2332;38.646;-9.154;2023-04-03T00:32:26;3.07;;;1.60;;
4638;SDS011;2332;38.646;-9.154;2023-04-03T00:34:51;1.60;;;1.50;;
4638;SDS011;2332;38.646;-9.154;2023-04-03T00:37:17;9.37;;;1.70;;
4638;SDS011;2332;38.646;-9.154;2023-04-03T00:39:42;4.20;;;2.23;;
4638;SDS011;2332;38.646;-9.154;2023-04-03T00:42:08;3.20;;;1.80;;
4638;SDS011;2332;38.646;-9.154;2023-04-03T00:46:59;2.87;;;1.50;;
4638;SDS011;2332;38.646;-9.154;2023-04-03T00:49:25;5.70;;;1.90;;
4638;SDS011;2332;38.646;-9.154;2023-04-03T00:51:51;6.13;;;1.97;;
4638;SDS011;2332;38.646;-9.154;2023-04-03T00:54:16;5.27;;;1.67;;
4638;SDS011;2332;38.646;-9.154;2023-04-03T00:56:42;2.27;;;1.90;;
4638;SDS011;2332;38.646;-9.154;2023-04-03T00:59:10;3.47;;;1.70;;
4638;SDS011;2332;38.646;-9.154;2023-04-03T01:01:36;3.60;;;1.90;;
4638;SDS011;2332;38.646;-9.154;2023-04-03T01:04:02;4.73;;;2.07;;
4638;SDS011;2332;38.646;-9.154;2023-04-03T01:06:29;4.80;;;2.53;;
4638;SDS011;2332;38.646;-9.154;2023-04-03T01:08:57;3.10;;;2.27;;
4638;SDS011;2332;38.646;-9.154;2023-04-03T01:11:22;7.13;;;2.53;;
4638;SDS011;2332;38.646;-9.154;2023-04-03T01:13:48;2.93;;;2.00;;
4638;SDS011;2332;38.646;-9.154;2023-04-03T01:16:14;5.60;;;2.67;;
4638;SDS011;2332;38.646;-9.154;2023-04-03T01:18:40;7.40;;;2.70;;
4638;SDS011;2332;38.646;-9.154;2023-04-03T01:26:18;6.83;;;2.90;;
4638;SDS011;2332;38.646;-9.154;2023-04-03T01:28:43;7.53;;;2.83;;
4638;SDS011;2332;38.646;-9.154;2023-04-03T01:33:34;10.63;;;3.07;;
4638;SDS011;2332;38.646;-9.154;2023-04-03T01:36:00;6.53;;;2.83;;
4638;SDS011;2332;38.646;-9.154;2023-04-03T01:38:26;5.50;;;2.93;;
4638;SDS011;2332;38.646;-9.154;2023-04-03T01:40:51;5.40;;;2.80;;
4638;SDS011;2332;38.646;-9.154;2023-04-03T01:43:17;7.63;;;3.00;;
4638;SDS011;2332;38.646;-9.154;2023-04-03T01:45:42;7.27;;;2.43;;
4638;SDS011;2332;38.646;-9.154;2023-04-03T01:48:08;7.17;;;2.83;;
4638;SDS011;2332;38.646;-9.154;2023-04-03T01:50:33;12.57;;;3.00;;
4638;SDS011;2332;38.646;-9.154;2023-04-03T01:52:59;8.10;;;2.90;;
4638;SDS011;2332;38.646;-9.154;2023-04-03T01:55:24;4.73;;;3.00;;
4638;SDS011;2332;38.646;-9.154;2023-04-03T01:57:50;7.37;;;2.60;;
4638;SDS011;2332;38.646;-9.154;2023-04-03T02:00:15;9.37;;;2.70;;
4638;SDS011;2332;38.646;-9.154;2023-04-03T02:02:41;11.63;;;3.40;;
4638;SDS011;2332;38.646;-9.154;2023-04-03T02:05:07;6.50;;;3.67;;
4638;SDS011;2332;38.646;-9.154;2023-04-03T02:07:32;7.53;;;3.50;;
4638;SDS011;2332;38.646;-9.154;2023-04-03T02:09:58;6.73;;;2.60;;
4638;SDS011;2332;38.646;-9.154;2023-04-03T02:12:23;14.40;;;3.40;;
4638;SDS011;2332;38.646;-9.154;2023-04-03T02:14:48;9.57;;;3.03;;
4638;SDS011;2332;38.646;-9.154;2023-04-03T02:17:14;13.07;;;3.80;;
4638;SDS011;2332;38.646;-9.154;2023-04-03T02:19:40;5.33;;;3.00;;
4638;SDS011;2332;38.646;-9.154;2023-04-03T02:22:05;4.37;;;3.00;;
4638;SDS011;2332;38.646;-9.154;2023-04-03T02:24:31;5.27;;;3.20;;
4638;SDS011;2332;38.646;-9.154;2023-04-03T02:26:57;7.13;;;2.77;;
4638;SDS011;2332;38.646;-9.154;2023-04-03T02:29:23;11.27;;;4.30;;
4638;SDS011;2332;38.646;-9.154;2023-04-03T02:31:49;5.77;;;2.93;;
4638;SDS011;2332;38.646;-9.154;2023-04-03T02:34:14;4.77;;;3.27;;
4638;SDS011;2332;38.646;-9.154;2023-04-03T02:36:40;7.47;;;3.73;;
4638;SDS011;2332;38.646;-9.154;2023-04-03T02:39:05;7.53;;;3.40;;
4638;SDS011;2332;38.646;-9.154;2023-04-03T02:41:31;9.27;;;3.80;;
4638;SDS011;2332;38.646;-9.154;2023-04-03T02:44:03;9.57;;;3.77;;
4638;SDS011;2332;38.646;-9.154;2023-04-03T02:46:28;8.20;;;4.40;;
4638;SDS011;2332;38.646;-9.154;2023-04-03T02:48:54;12.10;;;4.00;;
4638;SDS011;2332;38.646;-9.154;2023-04-03T02:51:19;13.80;;;3.80;;
4638;SDS011;2332;38.646;-9.154;2023-04-03T02:53:45;11.53;;;3.87;;
4638;SDS011;2332;38.646;-9.154;2023-04-03T02:56:10;13.57;;;4.03;;
4638;SDS011;2332;38.646;-9.154;2023-04-03T02:58:36;10.97;;;4.60;;
4638;SDS011;2332;38.646;-9.154;2023-04-03T03:01:01;8.27;;;3.33;;
4638;SDS011;2332;38.646;-9.154;2023-04-03T03:03:27;11.53;;;3.90;;
4638;SDS011;2332;38.646;-9.154;2023-04-03T03:06:02;12.33;;;3.90;;
4638;SDS011;2332;38.646;-9.154;2023-04-03T03:08:28;10.23;;;3.80;;
4638;SDS011;2332;38.646;-9.154;2023-04-03T03:10:53;15.80;;;3.57;;
4638;SDS011;2332;38.646;-9.154;2023-04-03T03:13:19;9.07;;;3.67;;
4638;SDS011;2332;38.646;-9.154;2023-04-03T03:15:44;3.80;;;3.07;;
4638;SDS011;2332;38.646;-9.154;2023-04-03T03:18:09;8.50;;;3.80;;
4638;SDS011;2332;38.646;-9.154;2023-04-03T03:20:35;8.50;;;3.87;;
4638;SDS011;2332;38.646;-9.154;2023-04-03T03:23:00;9.93;;;4.00;;
4638;SDS011;2332;38.646;-9.154;2023-04-03T03:25:25;9.00;;;4.20;;
4638;SDS011;2332;38.646;-9.154;2023-04-03T03:27:51;11.80;;;3.90;;
4638;SDS011;2332;38.646;-9.154;2023-04-03T03:30:16;7.33;;;3.80;;
4638;SDS011;2332;38.646;-9.154;2023-04-03T03:32:42;7.60;;;4.10;;
4638;SDS011;2332;38.646;-9.154;2023-04-03T03:35:07;18.33;;;5.40;;
4638;SDS011;2332;38.646;-9.154;2023-04-03T03:37:32;18.77;;;5.37;;
4638;SDS011;2332;38.646;-9.154;2023-04-03T03:39:58;15.13;;;5.40;;
4638;SDS011;2332;38.646;-9.154;2023-04-03T03:42:23;19.63;;;4.87;;
4638;SDS011;2332;38.646;-9.154;2023-04-03T03:44:49;11.13;;;4.67;;
4638;SDS011;2332;38.646;-9.154;2023-04-03T03:47:14;14.70;;;4.60;;
4638;SDS011;2332;38.646;-9.154;2023-04-03T03:49:40;9.07;;;3.77;;
4638;SDS011;2332;38.646;-9.154;2023-04-03T03:52:05;14.40;;;4.77;;
4638;SDS011;2332;38.646;-9.154;2023-04-03T03:54:31;8.87;;;4.13;;
4638;SDS011;2332;38.646;-9.154;2023-04-03T03:56:56;19.30;;;4.60;;
4638;SDS011;2332;38.646;-9.154;2023-04-03T03:59:22;10.60;;;4.60;;
4638;SDS011;2332;38.646;-9.154;2023-04-03T04:01:47;17.77;;;4.07;;
4638;SDS011;2332;38.646;-9.154;2023-04-03T04:04:12;10.40;;;4.50;;
4638;SDS011;2332;38.646;-9.154;2023-04-03T04:06:38;11.50;;;3.50;;
4638;SDS011;2332;38.646;-9.154;2023-04-03T04:09:03;13.80;;;3.83;;
4638;SDS011;2332;38.646;-9.154;2023-04-03T04:11:29;9.00;;;3.87;;
4638;SDS011;2332;38.646;-9.154;2023-04-03T04:13:54;9.50;;;4.03;;
4638;SDS011;2332;38.646;-9.154;2023-04-03T04:16:20;4.13;;;3.73;;
4638;SDS011;2332;38.646;-9.154;2023-04-03T04:18:45;13.13;;;4.00;;
4638;SDS011;2332;38.646;-9.154;2023-04-03T04:21:10;4.60;;;3.00;;
4638;SDS011;2332;38.646;-9.154;2023-04-03T04:23:36;7.90;;;3.70;;
4638;SDS011;2332;38.646;-9.154;2023-04-03T04:26:01;4.10;;;3.37;;
4638;SDS011;2332;38.646;-9.154;2023-04-03T04:28:27;8.77;;;3.67;;
4638;SDS011;2332;38.646;-9.154;2023-04-03T04:30:52;5.57;;;3.70;;
4638;SDS011;2332;38.646;-9.154;2023-04-03T04:33:17;12.57;;;3.77;;
4638;SDS011;2332;38.646;-9.154;2023-04-03T04:35:43;5.80;;;3.40;;
4638;SDS011;2332;38.646;-9.154;2023-04-03T04:38:08;8.37;;;4.67;;
4638;SDS011;2332;38.646;-9.154;2023-04-03T04:40:34;8.87;;;4.17;;
4638;SDS011;2332;38.646;-9.154;2023-04-03T04:43:00;8.77;;;4.30;;
4638;SDS011;2332;38.646;-9.154;2023-04-03T04:45:26;11.93;;;4.70;;
4638;SDS011;2332;38.646;-9.154;2023-04-03T04:47:51;7.97;;;4.57;;
4638;SDS011;2332;38.646;-9.154;2023-04-03T04:50:18;6.73;;;4.30;;
4638;SDS011;2332;38.646;-9.154;2023-04-03T04:52:43;11.60;;;3.87;;
4638;SDS011;2332;38.646;-9.154;2023-04-03T04:55:08;6.23;;;3.20;;
4638;SDS011;2332;38.646;-9.154;2023-04-03T04:57:34;4.23;;;3.83;;
4638;SDS011;2332;38.646;-9.154;2023-04-03T05:00:00;11.70;;;4.13;;
4638;SDS011;2332;38.646;-9.154;2023-04-03T05:02:25;10.40;;;4.03;;
4638;SDS011;2332;38.646;-9.154;2023-04-03T05:04:51;10.47;;;4.10;;
4638;SDS011;2332;38.646;-9.154;2023-04-03T05:07:17;7.43;;;4.10;;
4638;SDS011;2332;38.646;-9.154;2023-04-03T05:09:42;11.47;;;4.20;;
4638;SDS011;2332;38.646;-9.154;2023-04-03T05:12:07;6.90;;;4.10;;
4638;SDS011;2332;38.646;-9.154;2023-04-03T05:14:33;7.00;;;3.77;;
4638;SDS011;2332;38.646;-9.154;2023-04-03T05:16:58;12.37;;;4.90;;
4638;SDS011;2332;38.646;-9.154;2023-04-03T05:19:24;17.83;;;4.40;;
4638;SDS011;2332;38.646;-9.154;2023-04-03T05:21:49;10.47;;;4.33;;
4638;SDS011;2332;38.646;-9.154;2023-04-03T05:24:15;7.43;;;4.60;;
4638;SDS011;2332;38.646;-9.154;2023-04-03T05:26:41;11.37;;;4.43;;
4638;SDS011;2332;38.646;-9.154;2023-04-03T05:29:06;9.20;;;3.90;;
4638;SDS011;2332;38.646;-9.154;2023-04-03T05:31:32;6.70;;;4.00;;
4638;SDS011;2332;38.646;-9.154;2023-04-03T05:33:57;12.47;;;4.63;;
4638;SDS011;2332;38.646;-9.154;2023-04-03T05:36:23;11.33;;;4.33;;
4638;SDS011;2332;38.646;-9.154;2023-04-03T05:38:48;9.33;;;4.30;;
4638;SDS011;2332;38.646;-9.154;2023-04-03T05:41:14;5.20;;;3.80;;
4638;SDS011;2332;38.646;-9.154;2023-04-03T05:43:40;8.03;;;4.17;;
4638;SDS011;2332;38.646;-9.154;2023-04-03T05:46:10;8.33;;;4.10;;
4638;SDS011;2332;38.646;-9.154;2023-04-03T05:48:36;5.30;;;3.70;;
4638;SDS011;2332;38.646;-9.154;2023-04-03T05:51:02;14.93;;;4.70;;
4638;SDS011;2332;38.646;-9.154;2023-04-03T05:53:27;7.10;;;4.83;;
4638;SDS011;2332;38.646;-9.154;2023-04-03T05:55:53;10.20;;;4.33;;
4638;SDS011;2332;38.646;-9.154;2023-04-03T05:58:19;8.23;;;4.37;;
4638;SDS011;2332;38.646;-9.154;2023-04-03T06:00:44;13.60;;;5.23;;
4638;SDS011;2332;38.646;-9.154;2023-04-03T06:03:10;11.63;;;4.63;;
4638;SDS011;2332;38.646;-9.154;2023-04-03T06:05:35;20.60;;;4.57;;
4638;SDS011;2332;38.646;-9.154;2023-04-03T06:08:01;11.27;;;4.40;;
4638;SDS011;2332;38.646;-9.154;2023-04-03T06:10:26;8.07;;;4.50;;
4638;SDS011;2332;38.646;-9.154;2023-04-03T06:12:52;8.53;;;5.20;;
4638;SDS011;2332;38.646;-9.154;2023-04-03T06:15:17;13.53;;;5.03;;
4638;SDS011;2332;38.646;-9.154;2023-04-03T06:17:43;9.97;;;4.90;;
4638;SDS011;2332;38.646;-9.154;2023-04-03T06:20:08;9.83;;;4.80;;
4638;SDS011;2332;38.646;-9.154;2023-04-03T06:22:34;12.33;;;4.87;;
4638;SDS011;2332;38.646;-9.154;2023-04-03T06:25:00;16.70;;;4.70;;
4638;SDS011;2332;38.646;-9.154;2023-04-03T06:27:25;12.27;;;4.30;;
4638;SDS011;2332;38.646;-9.154;2023-04-03T06:29:51;12.83;;;4.83;;
4638;SDS011;2332;38.646;-9.154;2023-04-03T06:32:16;11.37;;;4.63;;
4638;SDS011;2332;38.646;-9.154;2023-04-03T06:34:42;26.80;;;5.23;;
4638;SDS011;2332;38.646;-9.154;2023-04-03T06:37:25;12.17;;;5.20;;
4638;SDS011;2332;38.646;-9.154;2023-04-03T06:39:51;11.87;;;5.00;;
4638;SDS011;2332;38.646;-9.154;2023-04-03T06:42:17;17.60;;;5.40;;
4638;SDS011;2332;38.646;-9.154;2023-04-03T06:44:42;17.13;;;6.00;;
4638;SDS011;2332;38.646;-9.154;2023-04-03T06:47:09;9.30;;;5.00;;
4638;SDS011;2332;38.646;-9.154;2023-04-03T06:49:36;13.40;;;5.00;;
4638;SDS011;2332;38.646;-9.154;2023-04-03T06:52:02;17.30;;;5.10;;
4638;SDS011;2332;38.646;-9.154;2023-04-03T06:54:27;10.60;;;5.37;;
4638;SDS011;2332;38.646;-9.154;2023-04-03T06:56:53;14.73;;;5.90;;
4638;SDS011;2332;38.646;-9.154;2023-04-03T06:59:18;13.87;;;5.47;;
4638;SDS011;2332;38.646;-9.154;2023-04-03T07:01:44;12.00;;;5.37;;
4638;SDS011;2332;38.646;-9.154;2023-04-03T07:04:10;14.10;;;5.20;;
4638;SDS011;2332;38.646;-9.154;2023-04-03T07:06:36;16.20;;;5.90;;
4638;SDS011;2332;38.646;-9.154;2023-04-03T07:09:01;5.37;;;4.87;;
4638;SDS011;2332;38.646;-9.154;2023-04-03T07:11:27;15.67;;;5.90;;
4638;SDS011;2332;38.646;-9.154;2023-04-03T07:13:53;14.27;;;5.60;;
4638;SDS011;2332;38.646;-9.154;2023-04-03T07:16:18;9.93;;;5.87;;
4638;SDS011;2332;38.646;-9.154;2023-04-03T07:18:44;14.83;;;6.10;;
4638;SDS011;2332;38.646;-9.154;2023-04-03T07:21:10;16.10;;;6.03;;
4638;SDS011;2332;38.646;-9.154;2023-04-03T07:23:36;17.70;;;6.00;;
4638;SDS011;2332;38.646;-9.154;2023-04-03T07:26:03;11.50;;;5.53;;
4638;SDS011;2332;38.646;-9.154;2023-04-03T07:28:28;10.77;;;5.90;;
4638;SDS011;2332;38.646;-9.154;2023-04-03T07:31:05;11.00;;;6.07;;
4638;SDS011;2332;38.646;-9.154;2023-04-03T07:33:33;11.30;;;6.07;;
4638;SDS011;2332;38.646;-9.154;2023-04-03T07:35:58;10.17;;;6.17;;
4638;SDS011;2332;38.646;-9.154;2023-04-03T07:38:24;17.37;;;6.17;;
4638;SDS011;2332;38.646;-9.154;2023-04-03T07:40:50;10.77;;;5.90;;
4638;SDS011;2332;38.646;-9.154;2023-04-03T07:43:17;11.73;;;6.17;;
4638;SDS011;2332;38.646;-9.154;2023-04-03T07:45:42;9.17;;;5.70;;
4638;SDS011;2332;38.646;-9.154;2023-04-03T07:48:09;10.27;;;5.97;;
4638;SDS011;2332;38.646;-9.154;2023-04-03T07:50:34;14.97;;;6.13;;
4638;SDS011;2332;38.646;-9.154;2023-04-03T07:53:01;7.03;;;5.00;;
4638;SDS011;2332;38.646;-9.154;2023-04-03T07:55:26;10.90;;;5.60;;
4638;SDS011;2332;38.646;-9.154;2023-04-03T07:57:52;11.40;;;5.00;;
4638;SDS011;2332;38.646;-9.154;2023-04-03T08:00:17;9.20;;;5.30;;
4638;SDS011;2332;38.646;-9.154;2023-04-03T08:02:44;8.33;;;4.70;;
4638;SDS011;2332;38.646;-9.154;2023-04-03T08:05:15;12.30;;;4.93;;
4638;SDS011;2332;38.646;-9.154;2023-04-03T08:07:40;7.50;;;4.20;;
4638;SDS011;2332;38.646;-9.154;2023-04-03T08:10:06;9.00;;;3.83;;
4638;SDS011;2332;38.646;-9.154;2023-04-03T08:12:31;8.63;;;3.73;;
4638;SDS011;2332;38.646;-9.154;2023-04-03T08:14:57;8.43;;;4.00;;
4638;SDS011;2332;38.646;-9.154;2023-04-03T08:17:25;9.17;;;4.00;;
4638;SDS011;2332;38.646;-9.154;2023-04-03T08:19:51;12.60;;;3.80;;
4638;SDS011;2332;38.646;-9.154;2023-04-03T08:22:17;6.50;;;3.70;;
4638;SDS011;2332;38.646;-9.154;2023-04-03T08:24:42;4.03;;;3.10;;
4638;SDS011;2332;38.646;-9.154;2023-04-03T08:27:07;4.30;;;3.10;;
4638;SDS011;2332;38.646;-9.154;2023-04-03T08:29:33;4.70;;;3.47;;
4638;SDS011;2332;38.646;-9.154;2023-04-03T08:31:58;6.80;;;4.07;;
4638;SDS011;2332;38.646;-9.154;2023-04-03T08:34:23;6.30;;;3.63;;
4638;SDS011;2332;38.646;-9.154;2023-04-03T08:36:49;4.80;;;3.50;;
4638;SDS011;2332;38.646;-9.154;2023-04-03T08:39:14;7.50;;;4.00;;
4638;SDS011;2332;38.646;-9.154;2023-04-03T08:41:43;9.07;;;3.40;;
4638;SDS011;2332;38.646;-9.154;2023-04-03T08:49:29;6.83;;;3.83;;
4638;SDS011;2332;38.646;-9.154;2023-04-03T08:51:56;7.70;;;3.40;;
4638;SDS011;2332;38.646;-9.154;2023-04-03T08:54:30;9.70;;;4.20;;
4638;SDS011;2332;38.646;-9.154;2023-04-03T08:56:56;4.60;;;3.43;;
4638;SDS011;2332;38.646;-9.154;2023-04-03T08:59:29;5.57;;;3.50;;
4638;SDS011;2332;38.646;-9.154;2023-04-03T09:01:57;4.57;;;3.17;;
4638;SDS011;2332;38.646;-9.154;2023-04-03T09:04:23;4.93;;;2.77;;
4638;SDS011;2332;38.646;-9.154;2023-04-03T09:06:55;5.17;;;3.53;;
4638;SDS011;2332;38.646;-9.154;2023-04-03T09:21:40;7.50;;;2.77;;
4638;SDS011;2332;38.646;-9.154;2023-04-03T09:24:07;6.23;;;3.17;;
4638;SDS011;2332;38.646;-9.154;2023-04-03T09:26:42;3.97;;;3.17;;
4638;SDS011;2332;38.646;-9.154;2023-04-03T09:29:12;5.50;;;2.90;;
4638;SDS011;2332;38.646;-9.154;2023-04-03T09:31:40;5.70;;;3.77;;
4638;SDS011;2332;38.646;-9.154;2023-04-03T09:34:13;3.20;;;2.90;;
4638;SDS011;2332;38.646;-9.154;2023-04-03T09:36:42;3.30;;;2.60;;
4638;SDS011;2332;38.646;-9.154;2023-04-03T09:39:10;4.47;;;2.83;;
4638;SDS011;2332;38.646;-9.154;2023-04-03T09:41:35;8.47;;;3.13;;
4638;SDS011;2332;38.646;-9.154;2023-04-03T09:44:01;6.10;;;3.43;;
4638;SDS011;2332;38.646;-9.154;2023-04-03T09:46:33;6.27;;;3.57;;
4638;SDS011;2332;38.646;-9.154;2023-04-03T09:48:59;3.60;;;3.30;;
4638;SDS011;2332;38.646;-9.154;2023-04-03T09:51:28;6.10;;;2.90;;
4638;SDS011;2332;38.646;-9.154;2023-04-03T09:53:53;3.87;;;3.10;;
4638;SDS011;2332;38.646;-9.154;2023-04-03T09:58:51;6.30;;;3.30;;
4638;SDS011;2332;38.646;-9.154;2023-04-03T10:01:21;3.43;;;2.60;;
4638;SDS011;2332;38.646;-9.154;2023-04-03T10:03:47;6.37;;;2.70;;
4638;SDS011;2332;38.646;-9.154;2023-04-03T10:06:29;6.00;;;3.43;;
4638;SDS011;2332;38.646;-9.154;2023-04-03T10:08:59;4.57;;;2.77;;
4638;SDS011;2332;38.646;-9.154;2023-04-03T10:11:26;2.90;;;2.60;;
4638;SDS011;2332;38.646;-9.154;2023-04-03T10:13:52;5.60;;;2.70;;
4638;SDS011;2332;38.646;-9.154;2023-04-03T10:16:20;4.97;;;2.90;;
4638;SDS011;2332;38.646;-9.154;2023-04-03T10:18:59;3.73;;;2.80;;
4638;SDS011;2332;38.646;-9.154;2023-04-03T10:29:03;5.33;;;1.93;;
4638;SDS011;2332;38.646;-9.154;2023-04-03T10:31:36;5.53;;;2.07;;
4638;SDS011;2332;38.646;-9.154;2023-04-03T10:41:58;4.00;;;1.30;;
4638;SDS011;2332;38.646;-9.154;2023-04-03T10:46:53;2.83;;;1.50;;
4638;SDS011;2332;38.646;-9.154;2023-04-03T10:52:02;1.97;;;1.20;;
4638;SDS011;2332;38.646;-9.154;2023-04-03T10:57:03;1.37;;;1.27;;
4638;SDS011;2332;38.646;-9.154;2023-04-03T11:04:39;1.50;;;1.40;;
4638;SDS011;2332;38.646;-9.154;2023-04-03T11:09:39;1.40;;;1.20;;
4638;SDS011;2332;38.646;-9.154;2023-04-03T11:12:17;1.17;;;0.90;;
4638;SDS011;2332;38.646;-9.154;2023-04-03T11:14:43;1.23;;;1.13;;
4638;SDS011;2332;38.646;-9.154;2023-04-03T11:17:54;2.43;;;0.97;;
4638;SDS011;2332;38.646;-9.154;2023-04-03T11:20:10;0.90;;;0.73;;
4638;SDS011;2332;38.646;-9.154;2023-04-03T11:22:41;0.70;;;0.70;;
4638;SDS011;2332;38.646;-9.154;2023-04-03T11:27:38;0.90;;;0.80;;
4638;SDS011;2332;38.646;-9.154;2023-04-03T11:30:07;0.90;;;0.70;;
4638;SDS011;2332;38.646;-9.154;2023-04-03T11:35:09;0.70;;;0.70;;
4638;SDS011;2332;38.646;-9.154;2023-04-03T11:37:39;0.60;;;0.60;;
4638;SDS011;2332;38.646;-9.154;2023-04-03T11:40:07;1.73;;;0.70;;
4638;SDS011;2332;38.646;-9.154;2023-04-03T11:42:40;0.97;;;0.60;;
4638;SDS011;2332;38.646;-9.154;2023-04-03T11:50:46;1.30;;;0.80;;
4638;SDS011;2332;38.646;-9.154;2023-04-03T11:55:44;1.10;;;1.03;;
4638;SDS011;2332;38.646;-9.154;2023-04-03T11:58:13;1.57;;;0.90;;
4638;SDS011;2332;38.646;-9.154;2023-04-03T12:05:56;1.00;;;1.00;;
4638;SDS011;2332;38.646;-9.154;2023-04-03T12:08:29;1.87;;;1.30;;
4638;SDS011;2332;38.646;-9.154;2023-04-03T12:16:04;11.37;;;3.20;;
4638;SDS011;2332;38.646;-9.154;2023-04-03T12:18:41;13.47;;;3.20;;
4638;SDS011;2332;38.646;-9.154;2023-04-03T12:21:07;14.87;;;3.00;;
4638;SDS011;2332;38.646;-9.154;2023-04-03T12:23:34;7.20;;;2.80;;
4638;SDS011;2332;38.646;-9.154;2023-04-03T12:26:19;10.27;;;3.20;;
4638;SDS011;2332;38.646;-9.154;2023-04-03T12:28:46;7.00;;;2.83;;
4638;SDS011;2332;38.646;-9.154;2023-04-03T12:31:13;8.57;;;2.43;;
4638;SDS011;2332;38.646;-9.154;2023-04-03T12:39:33;12.53;;;3.40;;
4638;SDS011;2332;38.646;-9.154;2023-04-03T12:44:31;7.70;;;2.77;;
4638;SDS011;2332;38.646;-9.154;2023-04-03T12:46:59;8.93;;;2.73;;
4638;SDS011;2332;38.646;-9.154;2023-04-03T12:49:41;5.07;;;2.20;;
4638;SDS011;2332;38.646;-9.154;2023-04-03T12:52:17;8.13;;;2.10;;
4638;SDS011;2332;38.646;-9.154;2023-04-03T12:54:43;7.17;;;2.40;;
4638;SDS011;2332;38.646;-9.154;2023-04-03T12:57:12;12.93;;;2.80;;
4638;SDS011;2332;38.646;-9.154;2023-04-03T12:59:38;8.07;;;2.30;;
4638;SDS011;2332;38.646;-9.154;2023-04-03T13:02:08;9.77;;;2.27;;
4638;SDS011;2332;38.646;-9.154;2023-04-03T13:04:37;3.27;;;2.00;;
4638;SDS011;2332;38.646;-9.154;2023-04-03T13:07:03;4.37;;;2.00;;
4638;SDS011;2332;38.646;-9.154;2023-04-03T13:09:30;7.33;;;1.77;;
4638;SDS011;2332;38.646;-9.154;2023-04-03T13:14:23;5.90;;;2.43;;
4638;SDS011;2332;38.646;-9.154;2023-04-03T13:17:03;4.20;;;1.80;;
4638;SDS011;2332;38.646;-9.154;2023-04-03T13:19:29;9.87;;;1.97;;
4638;SDS011;2332;38.646;-9.154;2023-04-03T13:21:58;3.67;;;2.00;;
4638;SDS011;2332;38.646;-9.154;2023-04-03T13:24:24;3.83;;;2.13;;
4638;SDS011;2332;38.646;-9.154;2023-04-03T13:26:50;2.90;;;1.87;;
4638;SDS011;2332;38.646;-9.154;2023-04-03T13:29:21;4.60;;;1.63;;
4638;SDS011;2332;38.646;-9.154;2023-04-03T13:31:47;8.30;;;2.10;;
4638;SDS011;2332;38.646;-9.154;2023-04-03T13:34:18;9.00;;;2.13;;
4638;SDS011;2332;38.646;-9.154;2023-04-03T13:37:04;7.97;;;2.13;;
4638;SDS011;2332;38.646;-9.154;2023-04-03T13:39:30;6.90;;;1.97;;
4638;SDS011;2332;38.646;-9.154;2023-04-03T13:41:57;12.17;;;2.17;;
4638;SDS011;2332;38.646;-9.154;2023-04-03T13:46:49;8.20;;;2.33;;
4638;SDS011;2332;38.646;-9.154;2023-04-03T13:49:21;7.20;;;2.00;;
4638;SDS011;2332;38.646;-9.154;2023-04-03T13:51:50;5.53;;;1.90;;
4638;SDS011;2332;38.646;-9.154;2023-04-03T13:54:35;4.00;;;2.30;;
4638;SDS011;2332;38.646;-9.154;2023-04-03T13:57:01;10.00;;;2.40;;
4638;SDS011;2332;38.646;-9.154;2023-04-03T13:59:34;7.00;;;2.37;;
4638;SDS011;2332;38.646;-9.154;2023-04-03T14:04:30;18.33;;;3.07;;
4638;SDS011;2332;38.646;-9.154;2023-04-03T14:06:56;7.63;;;2.40;;
4638;SDS011;2332;38.646;-9.154;2023-04-03T14:09:22;10.10;;;2.10;;
4638;SDS011;2332;38.646;-9.154;2023-04-03T14:11:52;4.47;;;2.40;;
4638;SDS011;2332;38.646;-9.154;2023-04-03T14:14:20;6.60;;;2.50;;
4638;SDS011;2332;38.646;-9.154;2023-04-03T14:16:48;7.47;;;2.20;;
4638;SDS011;2332;38.646;-9.154;2023-04-03T14:19:17;11.73;;;2.70;;
4638;SDS011;2332;38.646;-9.154;2023-04-03T14:21:43;4.60;;;1.97;;
4638;SDS011;2332;38.646;-9.154;2023-04-03T14:24:08;5.27;;;2.27;;
4638;SDS011;2332;38.646;-9.154;2023-04-03T14:26:34;5.20;;;2.57;;
4638;SDS011;2332;38.646;-9.154;2023-04-03T14:28:59;4.47;;;1.97;;
4638;SDS011;2332;38.646;-9.154;2023-04-03T14:31:25;8.83;;;2.17;;
4638;SDS011;2332;38.646;-9.154;2023-04-03T14:33:51;7.93;;;2.10;;
4638;SDS011;2332;38.646;-9.154;2023-04-03T14:36:21;5.50;;;2.70;;
4638;SDS011;2332;38.646;-9.154;2023-04-03T14:38:47;7.67;;;2.20;;
4638;SDS011;2332;38.646;-9.154;2023-04-03T14:41:15;3.63;;;2.50;;
4638;SDS011;2332;38.646;-9.154;2023-04-03T14:43:40;10.03;;;2.50;;
4638;SDS011;2332;38.646;-9.154;2023-04-03T14:46:11;9.80;;;2.93;;
4638;SDS011;2332;38.646;-9.154;2023-04-03T14:48:37;7.93;;;2.50;;
4638;SDS011;2332;38.646;-9.154;2023-04-03T14:51:02;5.40;;;2.70;;
4638;SDS011;2332;38.646;-9.154;2023-04-03T14:53:28;7.50;;;2.70;;
4638;SDS011;2332;38.646;-9.154;2023-04-03T14:55:55;8.20;;;2.97;;
4638;SDS011;2332;38.646;-9.154;2023-04-03T14:58:21;9.77;;;2.97;;
4638;SDS011;2332;38.646;-9.154;2023-04-03T15:00:46;10.03;;;2.60;;
4638;SDS011;2332;38.646;-9.154;2023-04-03T15:03:16;7.10;;;2.30;;
4638;SDS011;2332;38.646;-9.154;2023-04-03T15:05:42;9.47;;;2.47;;
4638;SDS011;2332;38.646;-9.154;2023-04-03T15:08:10;7.80;;;2.23;;
4638;SDS011;2332;38.646;-9.154;2023-04-03T15:10:41;3.73;;;2.23;;
4638;SDS011;2332;38.646;-9.154;2023-04-03T15:13:07;3.73;;;2.10;;
4638;SDS011;2332;38.646;-9.154;2023-04-03T15:15:33;3.70;;;2.00;;
4638;SDS011;2332;38.646;-9.154;2023-04-03T15:17:59;5.20;;;2.37;;
4638;SDS011;2332;38.646;-9.154;2023-04-03T15:20:25;6.93;;;2.10;;
4638;SDS011;2332;38.646;-9.154;2023-04-03T15:22:51;5.67;;;3.10;;
4638;SDS011;2332;38.646;-9.154;2023-04-03T15:25:17;6.93;;;1.70;;
4638;SDS011;2332;38.646;-9.154;2023-04-03T15:27:43;4.50;;;1.70;;
4638;SDS011;2332;38.646;-9.154;2023-04-03T15:30:18;3.83;;;1.67;;
4638;SDS011;2332;38.646;-9.154;2023-04-03T15:32:43;4.13;;;1.80;;
4638;SDS011;2332;38.646;-9.154;2023-04-03T15:35:09;3.97;;;1.87;;
4638;SDS011;2332;38.646;-9.154;2023-04-03T15:37:34;8.07;;;2.23;;
4638;SDS011;2332;38.646;-9.154;2023-04-03T15:40:00;5.30;;;1.83;;
4638;SDS011;2332;38.646;-9.154;2023-04-03T15:42:25;3.30;;;2.20;;
4638;SDS011;2332;38.646;-9.154;2023-04-03T15:44:51;6.63;;;1.90;;
4638;SDS011;2332;38.646;-9.154;2023-04-03T15:47:16;3.73;;;1.73;;
4638;SDS011;2332;38.646;-9.154;2023-04-03T15:49:42;5.13;;;2.20;;
4638;SDS011;2332;38.646;-9.154;2023-04-03T15:52:07;9.30;;;2.83;;
4638;SDS011;2332;38.646;-9.154;2023-04-03T15:54:33;4.90;;;1.90;;
4638;SDS011;2332;38.646;-9.154;2023-04-03T15:56:58;2.57;;;1.90;;
4638;SDS011;2332;38.646;-9.154;2023-04-03T15:59:24;9.33;;;2.13;;
4638;SDS011;2332;38.646;-9.154;2023-04-03T16:01:49;21.73;;;2.53;;
4638;SDS011;2332;38.646;-9.154;2023-04-03T16:04:15;7.30;;;1.67;;
4638;SDS011;2332;38.646;-9.154;2023-04-03T16:06:41;9.70;;;1.90;;
4638;SDS011;2332;38.646;-9.154;2023-04-03T16:09:07;6.93;;;2.03;;
4638;SDS011;2332;38.646;-9.154;2023-04-03T16:11:33;8.33;;;2.00;;
4638;SDS011;2332;38.646;-9.154;2023-04-03T16:14:00;5.23;;;2.43;;
4638;SDS011;2332;38.646;-9.154;2023-04-03T16:16:25;4.83;;;1.80;;
4638;SDS011;2332;38.646;-9.154;2023-04-03T16:18:53;11.17;;;1.57;;
4638;SDS011;2332;38.646;-9.154;2023-04-03T16:21:19;4.00;;;1.30;;
4638;SDS011;2332;38.646;-9.154;2023-04-03T16:23:44;5.37;;;1.70;;
4638;SDS011;2332;38.646;-9.154;2023-04-03T16:26:10;3.13;;;1.50;;
4638;SDS011;2332;38.646;-9.154;2023-04-03T16:28:35;2.77;;;1.53;;
4638;SDS011;2332;38.646;-9.154;2023-04-03T16:31:01;5.93;;;1.80;;
4638;SDS011;2332;38.646;-9.154;2023-04-03T16:33:26;11.17;;;1.63;;
4638;SDS011;2332;38.646;-9.154;2023-04-03T16:35:52;2.97;;;1.83;;